Time;durP1;ratioP1;P1;durP2;ratioP2;P2;SDS_P1;SDS_P2;PMS_P1;PMS_P2;Temp;Humidity;BMP_temperature;BMP_pressure;BME280_temperature;BME280_humidity;BME280_pressure;Samples;Min_cycle;Max_cycle;Signal;HPM_P1;HPM_P2
2023/09/15 00:02:02;;;;;;;;;;;25.50;79.30;;;;;;5095489;28;19912;-35
2023/09/15 00:04:28;;;;;;;;;;;25.50;79.30;;;;;;5093287;28;19938;-35
2023/09/15 00:06:54;;;;;;;;;;;25.50;79.30;;;;;;5102129;28;19915;-35
2023/09/15 00:09:20;;;;;;;;;;;25.50;79.30;;;;;;5092697;28;19916;-35
2023/09/15 00:11:47;;;;;;;;;;;25.50;79.20;;;;;;5100481;28;19920;-34
2023/09/15 00:14:13;;;;;;;;;;;25.50;79.30;;;;;;5088353;28;19925;-34
2023/09/15 00:16:40;;;;;;;;;;;25.50;79.30;;;;;;5100326;28;19923;-35
2023/09/15 00:19:06;;;;;;;;;;;25.50;79.40;;;;;;5095607;28;19920;-35
2023/09/15 00:21:38;;;;;;;;;;;25.50;79.40;;;;;;5090097;28;19916;-34
2023/09/15 00:24:05;;;;;;;;;;;25.50;79.40;;;;;;5100910;28;19920;-34
2023/09/15 00:26:32;;;;;;;;;;;25.50;79.40;;;;;;5099596;28;19916;-34
2023/09/15 00:29:02;;;;;;;;;;;25.50;79.40;;;;;;5076126;28;19959;-34
2023/09/15 00:31:28;;;;;;;;;;;25.50;79.40;;;;;;5094526;28;19916;-35
2023/09/15 00:33:54;;;;;;;;;;;25.40;79.30;;;;;;5081808;28;19912;-34
2023/09/15 00:36:19;;;;;;;;;;;25.40;79.20;;;;;;5093370;28;19931;-34
2023/09/15 00:38:45;;;;;;;;;;;25.50;79.30;;;;;;5093510;28;19932;-34
2023/09/15 00:41:12;;;;;;;;;;;25.50;79.30;;;;;;5093214;28;19916;-35
2023/09/15 00:43:38;;;;;;;;;;;25.40;79.20;;;;;;5098563;28;19936;-35
2023/09/15 00:46:04;;;;;;;;;;;25.40;79.20;;;;;;5102651;28;19916;-34
2023/09/15 00:48:30;;;;;;;;;;;25.40;79.20;;;;;;5103865;28;19916;-34
2023/09/15 00:50:56;;;;;;;;;;;25.40;79.20;;;;;;5095934;28;19923;-34
2023/09/15 00:53:22;;;;;;;;;;;25.40;79.10;;;;;;5091355;28;19948;-35
2023/09/15 00:55:48;;;;;;;;;;;25.40;79.10;;;;;;5078808;28;19938;-34
2023/09/15 00:58:15;;;;;;;;;;;25.40;79.10;;;;;;5092668;28;19927;-34
2023/09/15 01:00:44;;;;;;;;;;;25.40;79.10;;;;;;5093286;28;19987;-34
2023/09/15 01:03:10;;;;;;;;;;;25.40;79.10;;;;;;5095489;28;20052;-34
2023/09/15 01:05:36;;;;;;;;;;;25.40;79.00;;;;;;5076848;28;19916;-35
2023/09/15 01:08:03;;;;;;;;;;;25.40;79.00;;;;;;5101649;28;19912;-34
2023/09/15 01:10:28;;;;;;;;;;;25.40;79.10;;;;;;5093114;28;19959;-34
2023/09/15 01:12:54;;;;;;;;;;;25.40;79.00;;;;;;5100717;28;20296;-34
2023/09/15 01:15:22;;;;;;;;;;;25.40;78.90;;;;;;5103180;28;20285;-34
2023/09/15 01:17:48;;;;;;;;;;;25.40;78.90;;;;;;5101769;28;19916;-35
2023/09/15 01:20:21;;;;;;;;;;;25.40;78.90;;;;;;5098487;28;20017;-34
2023/09/15 01:22:53;;;;;;;;;;;25.40;78.90;;;;;;5078365;28;19987;-35
2023/09/15 01:25:25;;;;;;;;;;;25.40;79.00;;;;;;5097453;28;19916;-34
2023/09/15 01:28:14;;;;;;;;;;;25.40;78.90;;;;;;5103647;28;19962;-34
2023/09/15 01:30:41;;;;;;;;;;;25.40;78.90;;;;;;5090506;28;19916;-36
2023/09/15 01:33:09;;;;;;;;;;;25.40;78.90;;;;;;5084282;28;19962;-35
2023/09/15 01:35:35;;;;;;;;;;;25.40;78.90;;;;;;5084849;28;19932;-34
2023/09/15 01:38:01;;;;;;;;;;;25.40;78.90;;;;;;5093517;28;19916;-34
2023/09/15 01:40:27;;;;;;;;;;;25.40;78.90;;;;;;5102748;28;19922;-34
2023/09/15 01:42:53;;;;;;;;;;;25.40;78.90;;;;;;5102293;28;20015;-34
2023/09/15 01:45:19;;;;;;;;;;;25.40;78.90;;;;;;5102585;28;19915;-35
2023/09/15 01:47:45;;;;;;;;;;;25.40;78.90;;;;;;5099762;28;19927;-34
2023/09/15 01:50:11;;;;;;;;;;;25.40;79.00;;;;;;5101725;28;19944;-34
2023/09/15 01:52:37;;;;;;;;;;;25.40;79.00;;;;;;5103099;28;19919;-34
2023/09/15 01:55:03;;;;;;;;;;;25.40;79.00;;;;;;5095555;28;19946;-34
2023/09/15 01:57:29;;;;;;;;;;;25.40;79.10;;;;;;5098762;28;19917;-34
2023/09/15 01:59:57;;;;;;;;;;;25.40;79.20;;;;;;5078126;28;19912;-34
2023/09/15 02:02:22;;;;;;;;;;;25.40;79.20;;;;;;5097367;28;19971;-34
2023/09/15 02:04:48;;;;;;;;;;;25.40;79.20;;;;;;5096543;28;19916;-34
2023/09/15 02:07:15;;;;;;;;;;;25.30;79.10;;;;;;5093843;28;19917;-34
2023/09/15 02:09:41;;;;;;;;;;;25.40;79.10;;;;;;5101782;28;19916;-34
2023/09/15 02:12:07;;;;;;;;;;;25.30;78.90;;;;;;5101579;28;19920;-34
2023/09/15 02:14:34;;;;;;;;;;;25.30;79.00;;;;;;5102165;28;19920;-34
2023/09/15 02:17:00;;;;;;;;;;;25.30;79.00;;;;;;5100970;28;19955;-34
2023/09/15 02:19:26;;;;;;;;;;;25.30;79.00;;;;;;5101946;28;19927;-34
2023/09/15 02:21:52;;;;;;;;;;;25.30;79.00;;;;;;5099728;28;19984;-34
2023/09/15 02:24:18;;;;;;;;;;;25.30;79.00;;;;;;5095992;28;20404;-34
2023/09/15 02:26:44;;;;;;;;;;;25.30;78.90;;;;;;5097722;28;19955;-34
2023/09/15 02:29:10;;;;;;;;;;;25.30;79.00;;;;;;5101323;28;19916;-33
2023/09/15 02:31:35;;;;;;;;;;;25.30;79.00;;;;;;5102077;28;19912;-34
2023/09/15 02:34:02;;;;;;;;;;;25.30;79.00;;;;;;5100870;28;19923;-33
2023/09/15 02:36:28;;;;;;;;;;;25.30;79.00;;;;;;5101568;28;20005;-33
2023/09/15 02:38:56;;;;;;;;;;;25.30;79.10;;;;;;5101543;28;19916;-34
2023/09/15 02:41:22;;;;;;;;;;;25.30;79.20;;;;;;5101132;28;19923;-34
2023/09/15 02:43:48;;;;;;;;;;;25.30;79.20;;;;;;5101659;28;19928;-34
2023/09/15 02:46:16;;;;;;;;;;;25.30;79.20;;;;;;5099422;28;20197;-34
2023/09/15 02:48:42;;;;;;;;;;;25.20;79.20;;;;;;5100207;28;19923;-34
2023/09/15 02:51:08;;;;;;;;;;;25.20;79.10;;;;;;5100275;28;19954;-34
2023/09/15 02:53:34;;;;;;;;;;;25.20;79.10;;;;;;5094573;28;19916;-34
2023/09/15 02:56:00;;;;;;;;;;;25.20;79.00;;;;;;5099101;28;20039;-34
2023/09/15 02:58:27;;;;;;;;;;;25.20;79.00;;;;;;5084283;28;19944;-34
2023/09/15 03:00:53;;;;;;;;;;;25.20;78.90;;;;;;5083885;28;19917;-33
2023/09/15 03:03:20;;;;;;;;;;;25.20;78.90;;;;;;5091604;28;19912;-35
2023/09/15 03:05:46;;;;;;;;;;;25.20;79.00;;;;;;5090844;28;19955;-35
2023/09/15 03:08:13;;;;;;;;;;;25.20;78.90;;;;;;5093542;28;19988;-34
2023/09/15 03:10:39;;;;;;;;;;;25.20;79.00;;;;;;5094597;28;19912;-33
2023/09/15 03:13:05;;;;;;;;;;;25.20;79.00;;;;;;5085649;28;20365;-34
2023/09/15 03:15:32;;;;;;;;;;;25.20;79.00;;;;;;5083655;28;20546;-34
2023/09/15 03:17:58;;;;;;;;;;;25.20;79.00;;;;;;5084453;28;19917;-34
2023/09/15 03:20:24;;;;;;;;;;;25.20;79.10;;;;;;5094216;28;19922;-33
2023/09/15 03:22:50;;;;;;;;;;;25.20;79.20;;;;;;5083532;28;19924;-34
2023/09/15 03:25:17;;;;;;;;;;;25.20;79.20;;;;;;5086708;28;19959;-34
2023/09/15 03:27:43;;;;;;;;;;;25.20;79.20;;;;;;5102654;28;19916;-34
2023/09/15 03:30:09;;;;;;;;;;;25.20;79.20;;;;;;5092762;28;20704;-34
2023/09/15 03:32:35;;;;;;;;;;;25.20;79.20;;;;;;5091526;28;19920;-34
2023/09/15 03:35:01;;;;;;;;;;;25.10;79.10;;;;;;5089776;28;19931;-34
2023/09/15 03:37:27;;;;;;;;;;;25.20;79.00;;;;;;5093975;28;20014;-34
2023/09/15 03:39:52;;;;;;;;;;;25.20;79.10;;;;;;5094591;28;19970;-34
2023/09/15 03:42:18;;;;;;;;;;;25.10;78.90;;;;;;5083421;28;19925;-34
2023/09/15 03:44:44;;;;;;;;;;;25.10;78.90;;;;;;5083483;28;19920;-34
2023/09/15 03:47:10;;;;;;;;;;;25.10;78.90;;;;;;5090951;28;20009;-34
2023/09/15 03:49:36;;;;;;;;;;;25.10;78.90;;;;;;5092297;28;19941;-33
2023/09/15 03:52:02;;;;;;;;;;;25.20;79.10;;;;;;5084263;28;19920;-34
2023/09/15 03:54:28;;;;;;;;;;;25.10;79.00;;;;;;5086165;28;19923;-34
2023/09/15 03:56:54;;;;;;;;;;;25.10;78.90;;;;;;5086753;28;20384;-34
2023/09/15 03:59:20;;;;;;;;;;;25.10;79.10;;;;;;5083003;28;19931;-34
2023/09/15 04:01:49;;;;;;;;;;;25.10;79.20;;;;;;5091624;28;19927;-34
2023/09/15 04:04:15;;;;;;;;;;;25.10;79.20;;;;;;5086467;28;19917;-34
2023/09/15 04:06:41;;;;;;;;;;;25.10;79.20;;;;;;5087573;28;20028;-34
2023/09/15 04:09:27;;;;;;;;;;;25.10;79.20;;;;;;5099602;28;19970;-34
2023/09/15 04:11:53;;;;;;;;;;;25.10;79.30;;;;;;4996656;28;19981;-34
2023/09/15 04:14:19;;;;;;;;;;;25.10;79.30;;;;;;4999084;28;19913;-34
2023/09/15 04:16:45;;;;;;;;;;;25.10;79.20;;;;;;4999839;28;20395;-34
2023/09/15 04:19:11;;;;;;;;;;;25.00;79.10;;;;;;4999684;28;19941;-34
2023/09/15 04:21:38;;;;;;;;;;;25.10;79.10;;;;;;4999891;28;19918;-34
2023/09/15 04:24:07;;;;;;;;;;;25.10;79.10;;;;;;4999307;28;19961;-33
2023/09/15 04:26:33;;;;;;;;;;;25.00;79.00;;;;;;4999668;28;19939;-34
2023/09/15 04:28:59;;;;;;;;;;;25.10;79.10;;;;;;4999117;28;21301;-34
2023/09/15 04:31:25;;;;;;;;;;;25.00;79.00;;;;;;4999179;28;19914;-34
2023/09/15 04:33:51;;;;;;;;;;;25.00;79.00;;;;;;5003297;28;19956;-34
2023/09/15 04:36:17;;;;;;;;;;;25.00;79.00;;;;;;5002645;28;19936;-35
2023/09/15 04:38:43;;;;;;;;;;;25.00;79.10;;;;;;5002883;28;19918;-35
2023/09/15 04:41:09;;;;;;;;;;;25.00;79.10;;;;;;5002650;28;19964;-35
2023/09/15 04:43:35;;;;;;;;;;;25.00;79.10;;;;;;5003188;28;20069;-35
2023/09/15 04:46:01;;;;;;;;;;;25.00;79.20;;;;;;5003004;28;19914;-35
2023/09/15 04:50:59;;;;;;;;;;;25.00;79.20;;;;;;5095395;28;19913;-36
2023/09/15 04:53:24;;;;;;;;;;;25.00;79.20;;;;;;5097347;28;19951;-36
2023/09/15 04:55:50;;;;;;;;;;;25.00;79.20;;;;;;5098932;28;20618;-36
2023/09/15 04:58:16;;;;;;;;;;;25.00;79.90;;;;;;5093281;28;19920;-36
2023/09/15 05:00:42;;;;;;;;;;;25.00;79.20;;;;;;5085361;28;19916;-35
2023/09/15 05:03:08;;;;;;;;;;;25.00;79.20;;;;;;5086006;28;19927;-36
2023/09/15 05:05:34;;;;;;;;;;;25.00;79.10;;;;;;5090803;28;19912;-36
2023/09/15 05:08:00;;;;;;;;;;;25.00;79.20;;;;;;5096656;28;19919;-36
2023/09/15 05:10:26;;;;;;;;;;;25.00;79.10;;;;;;5102398;28;19938;-36
2023/09/15 05:12:52;;;;;;;;;;;25.00;79.20;;;;;;5104094;28;19955;-35
2023/09/15 05:15:18;;;;;;;;;;;24.90;79.10;;;;;;5092555;28;19924;-36
2023/09/15 05:17:47;;;;;;;;;;;25.00;79.10;;;;;;5093429;28;19924;-36
2023/09/15 05:20:12;;;;;;;;;;;24.90;79.10;;;;;;5095012;28;20100;-36
2023/09/15 05:22:38;;;;;;;;;;;24.90;79.20;;;;;;5095582;28;19912;-36
2023/09/15 05:25:04;;;;;;;;;;;24.90;79.20;;;;;;5089804;28;19913;-35
2023/09/15 05:27:31;;;;;;;;;;;24.90;79.20;;;;;;5102932;28;19916;-36
2023/09/15 05:29:58;;;;;;;;;;;24.90;79.20;;;;;;5096601;28;19923;-35
2023/09/15 05:32:24;;;;;;;;;;;24.90;79.20;;;;;;5092873;28;19912;-36
2023/09/15 05:34:50;;;;;;;;;;;24.90;79.30;;;;;;5092627;28;19977;-36
2023/09/15 05:37:15;;;;;;;;;;;24.90;79.30;;;;;;5103142;28;19916;-36
2023/09/15 05:39:41;;;;;;;;;;;24.90;79.20;;;;;;5095812;28;19923;-35
2023/09/15 05:42:07;;;;;;;;;;;24.90;79.20;;;;;;5093564;28;20466;-35
2023/09/15 05:44:33;;;;;;;;;;;24.90;79.20;;;;;;5092064;28;19917;-36
2023/09/15 05:46:59;;;;;;;;;;;24.90;79.20;;;;;;5099558;28;19912;-36
2023/09/15 05:49:25;;;;;;;;;;;24.90;79.20;;;;;;5100840;28;19968;-37
2023/09/15 05:51:51;;;;;;;;;;;24.90;79.20;;;;;;5095568;28;19961;-35
2023/09/15 05:54:17;;;;;;;;;;;24.90;79.20;;;;;;5102066;28;19920;-35
2023/09/15 05:56:43;;;;;;;;;;;24.90;79.20;;;;;;5103085;28;19920;-36
2023/09/15 05:59:09;;;;;;;;;;;24.90;79.20;;;;;;5053526;28;19916;-36
2023/09/15 06:01:35;;;;;;;;;;;24.90;79.20;;;;;;5102556;28;20386;-37
2023/09/15 06:04:01;;;;;;;;;;;24.90;79.30;;;;;;5100104;28;19912;-36
2023/09/15 06:06:26;;;;;;;;;;;24.90;79.30;;;;;;5077435;28;20637;-36
2023/09/15 06:08:52;;;;;;;;;;;24.80;79.30;;;;;;5095748;28;19912;-36
2023/09/15 06:11:18;;;;;;;;;;;24.80;79.30;;;;;;5091767;28;19916;-35
2023/09/15 06:13:46;;;;;;;;;;;24.80;79.30;;;;;;5091716;28;19979;-36
2023/09/15 06:16:12;;;;;;;;;;;24.80;79.40;;;;;;5095543;28;19963;-36
2023/09/15 06:18:37;;;;;;;;;;;24.80;79.40;;;;;;5077789;28;19919;-36
2023/09/15 06:21:03;;;;;;;;;;;24.80;79.30;;;;;;5099152;28;19916;-36
2023/09/15 06:23:30;;;;;;;;;;;24.80;79.30;;;;;;5100874;28;19947;-36
2023/09/15 06:25:56;;;;;;;;;;;24.80;79.20;;;;;;5099741;28;19939;-36
2023/09/15 06:28:21;;;;;;;;;;;24.80;79.20;;;;;;5101311;28;20426;-36
2023/09/15 06:30:47;;;;;;;;;;;24.80;79.30;;;;;;5099981;28;19934;-36
2023/09/15 06:33:13;;;;;;;;;;;24.80;79.20;;;;;;5099160;28;19981;-35
2023/09/15 06:35:39;;;;;;;;;;;24.80;79.30;;;;;;5102218;28;19919;-36
2023/09/15 06:38:06;;;;;;;;;;;24.80;79.20;;;;;;5093477;28;19916;-36
2023/09/15 06:40:35;;;;;;;;;;;24.80;79.20;;;;;;5101832;28;19916;-35
2023/09/15 06:43:04;;;;;;;;;;;24.80;79.30;;;;;;5100602;28;19963;-35
2023/09/15 06:45:31;;;;;;;;;;;24.80;79.30;;;;;;5097793;28;20415;-35
2023/09/15 06:47:58;;;;;;;;;;;24.80;79.40;;;;;;5091203;28;20614;-36
2023/09/15 06:50:24;;;;;;;;;;;24.80;79.30;;;;;;5099457;28;19987;-36
2023/09/15 06:52:50;;;;;;;;;;;24.80;79.40;;;;;;5093724;28;19959;-35
2023/09/15 06:55:16;;;;;;;;;;;24.70;79.30;;;;;;5087671;28;19928;-36
2023/09/15 06:57:42;;;;;;;;;;;24.80;79.40;;;;;;5091597;28;19917;-36
2023/09/15 07:00:09;;;;;;;;;;;24.70;79.50;;;;;;5099184;28;19965;-36
2023/09/15 07:02:35;;;;;;;;;;;24.80;79.30;;;;;;5070830;28;19913;-36
2023/09/15 07:05:01;;;;;;;;;;;24.80;79.30;;;;;;5097927;28;19924;-35
2023/09/15 07:07:26;;;;;;;;;;;24.80;79.30;;;;;;5094394;28;19920;-36
2023/09/15 07:09:52;;;;;;;;;;;24.80;79.30;;;;;;5094034;28;19916;-35
2023/09/15 07:12:18;;;;;;;;;;;24.70;79.20;;;;;;5084799;28;19965;-36
2023/09/15 07:14:44;;;;;;;;;;;24.70;79.20;;;;;;5090256;28;19917;-36
2023/09/15 07:17:10;;;;;;;;;;;24.70;79.20;;;;;;5099398;28;19955;-36
2023/09/15 07:19:36;;;;;;;;;;;24.70;79.20;;;;;;5100952;28;19916;-36
2023/09/15 07:22:02;;;;;;;;;;;24.70;79.30;;;;;;5100369;28;19916;-35
2023/09/15 07:24:28;;;;;;;;;;;24.70;79.30;;;;;;5090352;28;19999;-36
2023/09/15 07:26:54;;;;;;;;;;;24.70;79.30;;;;;;5100830;28;19912;-36
2023/09/15 07:29:19;;;;;;;;;;;24.70;79.30;;;;;;5082829;28;19923;-36
2023/09/15 07:31:45;;;;;;;;;;;24.70;79.30;;;;;;5101168;28;19923;-36
2023/09/15 07:34:12;;;;;;;;;;;24.70;79.40;;;;;;5097478;28;19988;-39
2023/09/15 07:36:38;;;;;;;;;;;24.60;79.30;;;;;;5090815;28;19925;-36
2023/09/15 07:39:05;;;;;;;;;;;24.60;79.30;;;;;;5098076;28;19919;-36
2023/09/15 07:41:31;;;;;;;;;;;24.60;79.30;;;;;;5101196;28;19922;-36
2023/09/15 07:44:00;;;;;;;;;;;24.70;79.30;;;;;;5092389;28;20707;-36
2023/09/15 07:46:26;;;;;;;;;;;24.60;79.20;;;;;;5093941;28;19987;-36
2023/09/15 07:48:52;;;;;;;;;;;24.70;79.30;;;;;;5100708;28;19912;-36
2023/09/15 07:51:19;;;;;;;;;;;24.60;79.20;;;;;;5098201;28;19923;-35
2023/09/15 07:53:45;;;;;;;;;;;24.60;79.20;;;;;;5099117;28;19923;-36
2023/09/15 07:56:11;;;;;;;;;;;24.60;79.20;;;;;;5092239;28;19928;-35
2023/09/15 07:58:37;;;;;;;;;;;24.60;79.20;;;;;;5099222;28;19923;-35
2023/09/15 08:01:04;;;;;;;;;;;24.60;79.20;;;;;;5100007;28;19983;-36
2023/09/15 08:03:30;;;;;;;;;;;24.60;79.30;;;;;;5100658;28;19912;-36
2023/09/15 08:05:56;;;;;;;;;;;24.60;79.30;;;;;;5099691;28;19916;-36
2023/09/15 08:08:22;;;;;;;;;;;24.60;79.30;;;;;;5090392;28;19923;-35
2023/09/15 08:10:48;;;;;;;;;;;24.60;79.30;;;;;;5102479;28;20073;-36
2023/09/15 08:13:14;;;;;;;;;;;24.60;79.30;;;;;;5103301;28;19932;-36
2023/09/15 08:15:40;;;;;;;;;;;24.60;79.40;;;;;;5097829;28;19924;-36
2023/09/15 08:18:06;;;;;;;;;;;24.60;79.40;;;;;;5102079;28;19987;-37
2023/09/15 08:20:31;;;;;;;;;;;24.60;79.30;;;;;;5104754;28;19923;-35
2023/09/15 08:22:58;;;;;;;;;;;24.60;79.40;;;;;;5103216;28;19988;-37
2023/09/15 08:25:24;;;;;;;;;;;24.60;79.30;;;;;;5092391;28;20042;-36
2023/09/15 08:27:50;;;;;;;;;;;24.60;79.30;;;;;;5098744;28;19919;-36
2023/09/15 08:30:16;;;;;;;;;;;24.60;79.30;;;;;;5101011;28;19916;-36
2023/09/15 08:32:43;;;;;;;;;;;24.50;79.30;;;;;;5093191;28;20432;-34
2023/09/15 08:35:09;;;;;;;;;;;24.60;79.30;;;;;;5095953;28;19920;-34
2023/09/15 08:37:35;;;;;;;;;;;24.60;79.30;;;;;;5095887;28;19926;-34
2023/09/15 08:40:01;;;;;;;;;;;24.50;79.30;;;;;;5103367;28;20515;-34
2023/09/15 08:42:27;;;;;;;;;;;24.50;79.30;;;;;;5100668;28;19924;-35
2023/09/15 08:44:53;;;;;;;;;;;24.50;79.30;;;;;;5100491;28;19924;-36
2023/09/15 08:47:20;;;;;;;;;;;24.50;79.30;;;;;;5096005;28;19915;-36
2023/09/15 08:49:47;;;;;;;;;;;24.50;79.30;;;;;;5104499;28;19983;-36
2023/09/15 08:52:16;;;;;;;;;;;24.50;79.30;;;;;;5103090;28;19917;-36
2023/09/15 08:54:42;;;;;;;;;;;24.50;79.40;;;;;;5076903;28;19928;-36
2023/09/15 08:57:08;;;;;;;;;;;24.50;79.30;;;;;;5069363;28;19927;-36
2023/09/15 08:59:34;;;;;;;;;;;24.50;79.40;;;;;;5099426;28;19916;-36
2023/09/15 09:02:00;;;;;;;;;;;24.50;79.40;;;;;;5074721;28;19917;-36
2023/09/15 09:04:26;;;;;;;;;;;24.50;79.40;;;;;;5082157;28;19923;-36
2023/09/15 09:06:52;;;;;;;;;;;24.50;79.40;;;;;;5093790;28;20039;-36
2023/09/15 09:09:18;;;;;;;;;;;24.50;79.30;;;;;;5095962;28;19917;-34
2023/09/15 09:11:45;;;;;;;;;;;24.50;79.40;;;;;;5103714;28;19924;-35
2023/09/15 09:14:12;;;;;;;;;;;24.50;79.30;;;;;;5084085;28;19923;-35
2023/09/15 09:16:38;;;;;;;;;;;24.50;79.30;;;;;;5103259;28;19959;-35
2023/09/15 09:19:06;;;;;;;;;;;24.40;79.30;;;;;;5068248;28;20360;-36
2023/09/15 09:21:33;;;;;;;;;;;24.50;79.40;;;;;;5090886;28;19913;-36
2023/09/15 09:23:59;;;;;;;;;;;24.40;79.30;;;;;;5087902;28;19965;-36
2023/09/15 09:26:25;;;;;;;;;;;24.40;79.30;;;;;;5084824;28;19999;-36
2023/09/15 09:28:57;;;;;;;;;;;24.40;79.30;;;;;;5085894;28;19919;-35
2023/09/15 09:31:26;;;;;;;;;;;24.40;79.30;;;;;;5093025;28;19944;-36
2023/09/15 09:33:52;;;;;;;;;;;24.40;79.30;;;;;;5079694;28;19912;-36
2023/09/15 09:36:18;;;;;;;;;;;24.40;79.40;;;;;;5086301;28;19924;-36
2023/09/15 09:38:45;;;;;;;;;;;24.40;79.40;;;;;;5082399;28;19938;-36
2023/09/15 09:41:11;;;;;;;;;;;24.40;79.40;;;;;;5085139;28;19923;-36
2023/09/15 09:43:39;;;;;;;;;;;24.40;79.40;;;;;;5085320;28;19924;-36
2023/09/15 09:46:09;;;;;;;;;;;24.40;79.40;;;;;;5085848;28;19968;-36
2023/09/15 09:48:35;;;;;;;;;;;24.40;79.30;;;;;;5084680;28;19938;-36
2023/09/15 09:51:04;;;;;;;;;;;24.40;79.30;;;;;;5072318;28;19923;-36
2023/09/15 09:53:34;;;;;;;;;;;24.40;79.30;;;;;;5089439;28;19938;-36
2023/09/15 09:56:00;;;;;;;;;;;24.30;79.30;;;;;;5085870;28;20027;-36
2023/09/15 09:58:26;;;;;;;;;;;24.30;79.30;;;;;;5088898;28;19916;-36
2023/09/15 10:00:52;;;;;;;;;;;24.40;79.40;;;;;;5102113;28;20018;-35
2023/09/15 10:03:18;;;;;;;;;;;24.30;79.30;;;;;;5094339;28;19923;-35
2023/09/15 10:05:44;;;;;;;;;;;24.30;79.40;;;;;;5096114;28;19916;-35
2023/09/15 10:08:10;;;;;;;;;;;24.30;79.40;;;;;;5099893;28;19912;-35
2023/09/15 10:10:41;;;;;;;;;;;24.30;79.40;;;;;;5073260;28;20033;-35
2023/09/15 10:13:08;;;;;;;;;;;24.30;79.40;;;;;;5100672;28;19920;-35
2023/09/15 10:15:38;;;;;;;;;;;24.30;79.40;;;;;;5092427;28;19984;-35
2023/09/15 10:18:04;;;;;;;;;;;24.30;79.40;;;;;;5092131;28;19919;-35
2023/09/15 10:20:30;;;;;;;;;;;24.30;79.40;;;;;;5092129;28;19916;-35
2023/09/15 10:22:56;;;;;;;;;;;24.30;79.40;;;;;;5092175;28;19923;-34
2023/09/15 10:25:22;;;;;;;;;;;24.30;79.40;;;;;;5070454;28;19995;-36
2023/09/15 10:27:48;;;;;;;;;;;24.30;79.40;;;;;;5073344;28;20447;-35
2023/09/15 10:30:14;;;;;;;;;;;24.30;79.40;;;;;;5100276;28;19916;-35
2023/09/15 10:32:42;;;;;;;;;;;24.30;79.40;;;;;;5096993;28;20055;-35
2023/09/15 10:35:09;;;;;;;;;;;24.30;79.40;;;;;;5097874;28;19931;-35
2023/09/15 10:37:42;;;;;;;;;;;24.30;79.40;;;;;;5084037;28;19925;-35
2023/09/15 10:40:10;;;;;;;;;;;24.30;79.30;;;;;;5092792;28;19925;-34
2023/09/15 10:42:47;;;;;;;;;;;24.30;79.40;;;;;;5094406;28;20656;-35
2023/09/15 10:45:13;;;;;;;;;;;24.20;79.40;;;;;;5091049;28;20212;-36
2023/09/15 10:47:39;;;;;;;;;;;24.20;79.40;;;;;;5093838;28;19912;-34
2023/09/15 10:50:07;;;;;;;;;;;24.20;79.40;;;;;;5096450;28;19915;-35
2023/09/15 10:52:37;;;;;;;;;;;24.30;79.40;;;;;;5092010;28;19936;-35
2023/09/15 10:55:03;;;;;;;;;;;24.20;79.50;;;;;;5086893;28;19926;-35
2023/09/15 10:57:29;;;;;;;;;;;24.20;79.40;;;;;;5088681;28;20002;-35
2023/09/15 10:59:56;;;;;;;;;;;24.20;79.40;;;;;;5094020;28;19916;-35
2023/09/15 11:02:22;;;;;;;;;;;24.20;79.40;;;;;;5100910;28;19979;-35
2023/09/15 11:04:48;;;;;;;;;;;24.20;79.40;;;;;;5100747;28;19916;-35
2023/09/15 11:07:16;;;;;;;;;;;24.20;79.40;;;;;;5093917;28;19916;-35
2023/09/15 11:09:42;;;;;;;;;;;24.20;79.40;;;;;;5101789;28;20373;-35
2023/09/15 11:12:08;;;;;;;;;;;24.20;79.40;;;;;;5092350;28;19920;-36
2023/09/15 11:14:34;;;;;;;;;;;24.20;79.40;;;;;;5083792;28;19956;-35
2023/09/15 11:17:03;;;;;;;;;;;24.20;79.40;;;;;;5090571;28;20035;-35
2023/09/15 11:19:30;;;;;;;;;;;24.20;79.40;;;;;;5094018;28;19924;-35
2023/09/15 11:21:57;;;;;;;;;;;24.20;79.40;;;;;;5086670;28;20403;-35
2023/09/15 11:24:23;;;;;;;;;;;24.20;79.40;;;;;;5091014;28;19927;-35
2023/09/15 11:26:50;;;;;;;;;;;24.20;79.50;;;;;;5100960;28;19947;-35
2023/09/15 11:29:17;;;;;;;;;;;24.10;79.40;;;;;;5100140;28;20462;-37
2023/09/15 11:31:47;;;;;;;;;;;24.10;79.40;;;;;;5100936;28;19916;-36
2023/09/15 11:34:13;;;;;;;;;;;24.10;79.40;;;;;;5080956;28;19981;-35
2023/09/15 11:36:41;;;;;;;;;;;24.10;79.50;;;;;;5082166;28;19924;-36
2023/09/15 11:39:28;;;;;;;;;;;24.10;79.50;;;;;;4988841;28;19918;-36
2023/09/15 11:41:55;;;;;;;;;;;24.10;79.40;;;;;;4989837;28;19941;-34
2023/09/15 11:44:29;;;;;;;;;;;24.10;79.40;;;;;;4984947;28;19921;-36
2023/09/15 11:46:56;;;;;;;;;;;24.10;79.50;;;;;;4984289;28;19914;-35
2023/09/15 11:49:22;;;;;;;;;;;24.10;79.40;;;;;;4968131;28;19921;-35
2023/09/15 11:51:52;;;;;;;;;;;24.10;79.40;;;;;;4984751;28;19919;-36
2023/09/15 11:54:19;;;;;;;;;;;24.10;79.40;;;;;;4984050;28;19922;-36
2023/09/15 11:56:46;;;;;;;;;;;24.10;79.40;;;;;;4984428;28;19974;-36
2023/09/15 11:59:13;;;;;;;;;;;24.10;79.40;;;;;;4968078;28;19914;-36
2023/09/15 12:01:40;;;;;;;;;;;24.10;79.50;;;;;;4984193;28;20143;-35
2023/09/15 12:04:06;;;;;;;;;;;24.10;79.50;;;;;;4984402;28;19918;-36
2023/09/15 12:06:33;;;;;;;;;;;24.10;79.50;;;;;;4967976;28;19981;-36
2023/09/15 12:08:59;;;;;;;;;;;24.10;79.50;;;;;;4984027;28;19993;-35
2023/09/15 12:11:25;;;;;;;;;;;24.10;79.50;;;;;;4977440;28;19914;-35
2023/09/15 12:13:54;;;;;;;;;;;24.10;79.50;;;;;;4968177;28;19981;-35
2023/09/15 12:16:31;;;;;;;;;;;24.10;79.50;;;;;;5006690;28;19935;-35
2023/09/15 12:18:58;;;;;;;;;;;24.10;79.50;;;;;;5074055;28;20040;-36
2023/09/15 12:21:24;;;;;;;;;;;24.10;79.50;;;;;;5072832;28;19976;-36
2023/09/15 12:23:56;;;;;;;;;;;24.00;79.50;;;;;;5084716;28;19934;-36
2023/09/15 12:26:24;;;;;;;;;;;24.10;79.50;;;;;;5066739;28;19917;-35
2023/09/15 12:28:50;;;;;;;;;;;24.10;79.50;;;;;;5068690;28;19981;-35
2023/09/15 12:31:20;;;;;;;;;;;24.00;79.40;;;;;;5077599;28;20020;-36
2023/09/15 12:33:56;;;;;;;;;;;24.00;79.50;;;;;;5066533;28;19912;-36
2023/09/15 12:36:22;;;;;;;;;;;24.00;79.50;;;;;;5081257;28;19947;-35
2023/09/15 12:38:48;;;;;;;;;;;24.00;79.50;;;;;;5073520;28;19944;-36
2023/09/15 12:41:14;;;;;;;;;;;24.00;79.50;;;;;;5076494;28;19916;-36
2023/09/15 12:43:40;;;;;;;;;;;24.00;79.50;;;;;;5096937;28;19924;-36
2023/09/15 12:46:06;;;;;;;;;;;24.00;79.60;;;;;;5070940;28;19917;-36
2023/09/15 12:48:32;;;;;;;;;;;24.00;79.60;;;;;;5086834;28;19917;-36
2023/09/15 12:50:58;;;;;;;;;;;24.00;79.60;;;;;;5098880;28;19916;-35
2023/09/15 12:53:25;;;;;;;;;;;24.00;79.60;;;;;;5068639;28;19938;-35
2023/09/15 12:55:53;;;;;;;;;;;24.00;79.60;;;;;;5085943;28;19924;-35
2023/09/15 12:58:19;;;;;;;;;;;24.00;79.60;;;;;;5096805;28;19923;-35
2023/09/15 13:00:44;;;;;;;;;;;24.00;79.60;;;;;;5097349;28;19916;-35
2023/09/15 13:03:11;;;;;;;;;;;24.00;79.60;;;;;;5086520;28;19920;-35
2023/09/15 13:05:36;;;;;;;;;;;24.00;79.60;;;;;;5096769;28;19916;-36
2023/09/15 13:08:03;;;;;;;;;;;24.00;79.60;;;;;;5096197;28;19923;-35
2023/09/15 13:10:29;;;;;;;;;;;24.00;79.60;;;;;;5096960;28;19916;-35
2023/09/15 13:12:55;;;;;;;;;;;24.00;79.60;;;;;;5071002;28;19920;-35
2023/09/15 13:15:21;;;;;;;;;;;24.00;79.50;;;;;;5085061;28;19944;-35
2023/09/15 13:17:48;;;;;;;;;;;24.00;79.60;;;;;;5092601;28;19995;-35
2023/09/15 13:20:14;;;;;;;;;;;24.00;79.60;;;;;;5091733;28;19975;-35
2023/09/15 13:22:40;;;;;;;;;;;24.00;79.60;;;;;;5090622;28;19951;-35
2023/09/15 13:25:06;;;;;;;;;;;24.00;79.60;;;;;;5094842;28;20411;-35
2023/09/15 13:27:32;;;;;;;;;;;23.90;79.60;;;;;;5092274;28;19967;-35
2023/09/15 13:29:58;;;;;;;;;;;24.00;79.70;;;;;;5091904;28;20373;-35
2023/09/15 13:32:25;;;;;;;;;;;24.00;79.70;;;;;;5092913;28;19930;-35
2023/09/15 13:34:52;;;;;;;;;;;23.90;79.70;;;;;;5085870;28;19916;-35
2023/09/15 13:37:18;;;;;;;;;;;23.90;79.60;;;;;;5103877;28;19924;-36
2023/09/15 13:39:43;;;;;;;;;;;23.90;80.40;;;;;;5090559;28;19916;-35
2023/09/15 13:42:10;;;;;;;;;;;23.90;79.60;;;;;;5093114;28;19923;-35
2023/09/15 13:44:35;;;;;;;;;;;23.90;79.60;;;;;;5085520;28;19916;-34
2023/09/15 13:47:01;;;;;;;;;;;23.90;79.60;;;;;;5100949;28;19959;-35
2023/09/15 13:49:27;;;;;;;;;;;23.90;79.70;;;;;;5094186;28;19921;-34
2023/09/15 13:51:53;;;;;;;;;;;23.90;79.60;;;;;;5095645;28;19919;-35
2023/09/15 13:54:19;;;;;;;;;;;23.90;79.70;;;;;;5095326;28;20376;-34
2023/09/15 13:56:45;;;;;;;;;;;23.90;79.70;;;;;;5097193;28;19920;-35
2023/09/15 13:59:11;;;;;;;;;;;23.90;79.70;;;;;;5087563;28;19942;-34
2023/09/15 14:01:39;;;;;;;;;;;23.90;79.70;;;;;;5099579;28;19951;-35
2023/09/15 14:04:08;;;;;;;;;;;23.90;79.70;;;;;;5099291;28;19913;-35
2023/09/15 14:06:34;;;;;;;;;;;23.90;79.70;;;;;;5097493;28;19916;-35
2023/09/15 14:09:00;;;;;;;;;;;23.90;79.80;;;;;;5094512;28;20442;-35
2023/09/15 14:11:26;;;;;;;;;;;23.90;79.80;;;;;;5085662;28;20343;-35
2023/09/15 14:13:53;;;;;;;;;;;23.90;79.80;;;;;;5089824;28;19916;-35
2023/09/15 14:16:19;;;;;;;;;;;23.90;79.80;;;;;;5091869;28;19987;-35